Current Weather

Greater Kankakee

Kankakee, Illinois (KIKK)

Report from: Friday, February 3, 2023 10:15 PM CST
Current time: Friday, February 3, 2023 10:50 PM CST

Nearby weather
Weather history
Weather forecast

Temperature-11.8°C (10.8°F)
Wind chill-17.1°C (1.2°F)
Dew point-16.7°C (1.9°F)
Winds 5 kts (2.6 m/s, 5.8 mph) East-Southeast (110°)
Visibility10 mi. (16.1 km)
Clouds Scattered clouds 6,000 ft. (1,829 m)
Altimeter30.50 in.Hg (1033 mB)
Relative humidity67 %
Density altitude-4,006 ft. (-1,221 m)
Remarks Fully automated report
Automated weather observing station with precipitation discriminator
Flight conditions Visual Meteorological Conditions
Raw dataKIKK 040415Z AUTO 11005KT 10SM SCT060 M12/M17 A3050 RMK AO2 T11181167
An unhandled exception has occurred. See browser dev tools for details. Reload 🗙